Time;durP1;ratioP1;P1;durP2;ratioP2;P2;SDS_P1;SDS_P2;PMS_P1;PMS_P2;Temp;Humidity;BMP_temperature;BMP_pressure;BME280_temperature;BME280_humidity;BME280_pressure;Samples;Min_cycle;Max_cycle;Signal;HPM_P1;HPM_P2
2024/03/24 00:01:05;;;;;;;12.63;6.15;;;3.90;99.90;;;;;;4968060;28;20448;-76
2024/03/24 00:03:31;;;;;;;12.98;5.50;;;3.90;99.90;;;;;;4970113;28;20030;-76
2024/03/24 00:05:57;;;;;;;11.25;6.03;;;3.90;99.90;;;;;;4970016;28;20029;-75
2024/03/24 00:08:23;;;;;;;9.90;5.90;;;3.90;99.90;;;;;;4967252;28;20020;-75
2024/03/24 00:10:49;;;;;;;10.05;6.65;;;3.90;99.90;;;;;;4958379;28;20038;-76
2024/03/24 00:13:15;;;;;;;9.55;6.00;;;3.90;99.90;;;;;;4969769;28;20110;-75
2024/03/24 00:15:41;;;;;;;19.67;8.90;;;3.90;99.90;;;;;;4983142;28;20122;-76
2024/03/24 00:18:06;;;;;;;12.50;6.50;;;3.90;99.90;;;;;;4952143;28;20043;-75
2024/03/24 00:20:36;;;;;;;14.18;7.07;;;3.90;99.90;;;;;;4952372;28;20436;-76
2024/03/24 00:23:02;;;;;;;9.87;6.37;;;4.00;99.90;;;;;;4951889;28;20122;-75
2024/03/24 00:25:28;;;;;;;13.45;7.43;;;4.00;99.90;;;;;;4960201;28;20278;-75
2024/03/24 00:27:54;;;;;;;9.80;7.25;;;4.00;99.90;;;;;;4982799;28;20026;-75
2024/03/24 00:30:20;;;;;;;11.00;7.18;;;4.10;99.90;;;;;;4970084;28;20027;-75
2024/03/24 00:32:51;;;;;;;10.52;6.85;;;4.10;99.90;;;;;;4969706;28;20027;-75
2024/03/24 00:35:17;;;;;;;12.23;7.07;;;4.10;99.90;;;;;;4970115;28;20026;-76
2024/03/24 00:37:43;;;;;;;10.15;6.97;;;4.10;99.90;;;;;;4970271;28;20030;-75
2024/03/24 00:40:13;;;;;;;13.95;6.60;;;4.20;99.90;;;;;;4969735;28;20034;-75
2024/03/24 00:42:41;;;;;;;9.90;7.15;;;4.20;99.90;;;;;;4964132;28;20485;-76
2024/03/24 00:45:10;;;;;;;10.95;6.13;;;4.20;99.90;;;;;;4952026;28;20119;-76
2024/03/24 00:47:36;;;;;;;10.95;6.95;;;4.20;99.90;;;;;;4958245;28;20038;-75
2024/03/24 00:50:03;;;;;;;11.20;7.03;;;4.30;99.90;;;;;;4951888;28;20034;-76
2024/03/24 00:52:29;;;;;;;12.88;7.70;;;4.30;99.90;;;;;;4950585;28;20032;-75
2024/03/24 00:54:55;;;;;;;11.50;6.80;;;4.40;99.90;;;;;;4962197;28;20464;-76
2024/03/24 00:57:21;;;;;;;12.32;7.32;;;4.40;99.90;;;;;;4990348;28;20027;-75
2024/03/24 00:59:47;;;;;;;14.10;7.32;;;4.40;99.90;;;;;;4990078;28;20096;-76
2024/03/24 01:02:13;;;;;;;12.32;6.80;;;4.40;99.90;;;;;;4989590;28;20030;-76
2024/03/24 01:04:38;;;;;;;9.32;6.75;;;4.40;99.90;;;;;;4975131;28;20023;-75
2024/03/24 01:07:04;;;;;;;11.07;6.72;;;4.40;99.90;;;;;;4975034;28;20033;-75
2024/03/24 01:09:30;;;;;;;12.07;7.65;;;4.50;99.90;;;;;;4973604;28;20080;-76
2024/03/24 01:11:56;;;;;;;10.55;6.93;;;4.40;99.90;;;;;;4973061;28;20482;-76
2024/03/24 01:14:22;;;;;;;16.08;7.50;;;4.40;99.90;;;;;;4970482;28;20027;-76
2024/03/24 01:16:48;;;;;;;15.27;8.23;;;4.40;99.90;;;;;;4968760;28;20089;-76
2024/03/24 01:19:13;;;;;;;17.83;8.07;;;4.40;99.90;;;;;;4974693;28;20049;-75
2024/03/24 01:21:40;;;;;;;11.55;7.88;;;4.30;99.90;;;;;;4974256;28;20486;-75
2024/03/24 01:24:07;;;;;;;15.02;9.10;;;4.30;99.90;;;;;;4974592;28;20106;-76
2024/03/24 01:26:33;;;;;;;11.68;7.07;;;4.40;99.90;;;;;;4962214;28;20091;-76
2024/03/24 01:28:59;;;;;;;14.43;8.13;;;4.30;99.90;;;;;;4955462;28;20577;-76
2024/03/24 01:31:25;;;;;;;13.77;7.82;;;4.30;99.90;;;;;;4957525;28;20031;-75
2024/03/24 01:33:51;;;;;;;14.35;7.88;;;4.30;99.90;;;;;;4989175;28;20161;-75
2024/03/24 01:36:18;;;;;;;12.95;7.63;;;4.40;99.90;;;;;;4972988;28;20023;-75
2024/03/24 01:38:44;;;;;;;13.57;8.10;;;4.40;99.90;;;;;;4974461;28;20035;-76
2024/03/24 01:41:09;;;;;;;12.60;8.32;;;4.40;99.90;;;;;;4973046;28;20505;-76
2024/03/24 01:43:35;;;;;;;13.35;7.38;;;4.30;99.90;;;;;;4973846;28;20501;-75
2024/03/24 01:46:00;;;;;;;12.90;7.68;;;4.40;99.90;;;;;;4974226;28;20488;-75
2024/03/24 01:48:26;;;;;;;14.60;7.85;;;4.40;99.90;;;;;;4973181;28;20038;-76
2024/03/24 01:50:52;;;;;;;18.45;8.85;;;4.30;99.90;;;;;;4966130;28;20031;-76
2024/03/24 01:53:20;;;;;;;13.02;9.05;;;4.30;99.90;;;;;;4969106;28;20027;-76
2024/03/24 01:55:49;;;;;;;20.58;8.57;;;4.30;99.90;;;;;;4953916;28;20050;-76
2024/03/24 01:58:17;;;;;;;11.25;8.20;;;4.40;99.90;;;;;;4953462;28;20031;-76
2024/03/24 02:00:45;;;;;;;10.52;7.32;;;4.30;99.90;;;;;;4962732;28;20038;-76
2024/03/24 02:03:11;;;;;;;14.85;8.20;;;4.30;99.90;;;;;;4954223;28;20027;-76
2024/03/24 02:05:37;;;;;;;10.80;7.68;;;4.30;99.90;;;;;;4953334;28;20082;-76
2024/03/24 02:08:03;;;;;;;20.23;9.40;;;4.30;99.90;;;;;;4983208;28;20050;-76
2024/03/24 02:10:29;;;;;;;15.98;7.70;;;4.30;99.90;;;;;;4953981;28;20366;-76
2024/03/24 02:12:55;;;;;;;15.45;8.55;;;4.30;99.90;;;;;;4961205;28;20034;-76
2024/03/24 02:15:20;;;;;;;13.98;8.10;;;4.30;99.90;;;;;;4956521;28;20538;-76
2024/03/24 02:17:46;;;;;;;12.15;7.25;;;4.30;99.90;;;;;;4953440;28;20035;-76
2024/03/24 02:20:12;;;;;;;16.58;8.70;;;4.30;99.90;;;;;;4954049;28;20031;-76
2024/03/24 02:22:39;;;;;;;16.20;9.23;;;4.30;99.90;;;;;;4957468;28;20121;-76
2024/03/24 02:25:05;;;;;;;16.02;8.82;;;4.30;99.90;;;;;;4971999;28;20359;-76
2024/03/24 02:27:35;;;;;;;17.83;8.38;;;4.30;99.90;;;;;;4952969;28;20027;-76
2024/03/24 02:30:01;;;;;;;14.88;8.52;;;4.30;99.90;;;;;;4954200;28;20023;-76
2024/03/24 02:32:27;;;;;;;16.40;8.35;;;4.30;99.90;;;;;;4952480;28;20031;-76
2024/03/24 02:35:00;;;;;;;17.27;8.70;;;4.30;99.90;;;;;;4959422;28;20379;-76
2024/03/24 02:37:26;;;;;;;18.33;9.82;;;4.30;99.90;;;;;;4954451;28;20050;-76
2024/03/24 02:39:52;;;;;;;17.95;9.02;;;4.30;99.90;;;;;;4964075;28;20019;-76
2024/03/24 02:42:18;;;;;;;14.50;7.78;;;4.20;99.90;;;;;;4986309;28;20486;-76
2024/03/24 02:44:43;;;;;;;15.23;8.38;;;4.20;99.90;;;;;;4972019;28;20486;-76
2024/03/24 02:47:09;;;;;;;15.85;8.55;;;4.20;99.90;;;;;;4971896;28;20066;-76
2024/03/24 02:49:35;;;;;;;12.88;7.78;;;4.10;99.90;;;;;;4972048;28;20053;-76
2024/03/24 02:52:00;;;;;;;16.33;8.10;;;4.10;99.90;;;;;;4971408;28;20023;-76
2024/03/24 02:54:26;;;;;;;13.18;8.65;;;4.10;99.90;;;;;;4987808;28;20031;-76
2024/03/24 02:56:52;;;;;;;14.55;8.15;;;4.10;99.90;;;;;;4973018;28;20735;-75
2024/03/24 02:59:18;;;;;;;12.10;7.57;;;4.10;99.90;;;;;;4971371;28;20494;-76
2024/03/24 03:01:47;;;;;;;14.18;7.22;;;4.10;99.90;;;;;;4965927;28;20024;-76
2024/03/24 03:04:13;;;;;;;12.50;7.65;;;4.10;99.90;;;;;;4952169;28;20399;-76
2024/03/24 03:06:39;;;;;;;18.92;8.88;;;4.10;99.90;;;;;;4953481;28;20382;-76
2024/03/24 03:09:16;;;;;;;14.95;8.65;;;4.10;99.90;;;;;;4952035;28;20503;-76
2024/03/24 03:11:43;;;;;;;21.13;9.32;;;4.10;99.90;;;;;;4964631;28;20482;-76
2024/03/24 03:14:08;;;;;;;20.42;9.50;;;4.10;99.90;;;;;;4971391;28;20410;-76
2024/03/24 03:16:34;;;;;;;12.95;7.97;;;4.10;99.90;;;;;;4970624;28;20426;-76
2024/03/24 03:19:00;;;;;;;16.33;8.82;;;4.10;99.90;;;;;;4972656;28;20023;-76
2024/03/24 03:21:29;;;;;;;14.65;8.52;;;4.10;99.90;;;;;;4984505;28;20082;-76
2024/03/24 03:23:58;;;;;;;13.20;8.48;;;4.10;99.90;;;;;;4966242;28;20023;-76
2024/03/24 03:26:24;;;;;;;16.88;8.60;;;4.10;99.90;;;;;;4972490;28;20026;-76
2024/03/24 03:28:54;;;;;;;15.25;8.32;;;4.10;99.90;;;;;;4971460;28;20038;-76
2024/03/24 03:31:20;;;;;;;22.77;9.98;;;4.10;99.90;;;;;;4970853;28;20030;-76
2024/03/24 03:33:45;;;;;;;12.45;7.90;;;4.10;99.90;;;;;;4981583;28;20041;-76
2024/03/24 03:36:11;;;;;;;16.15;8.88;;;4.10;99.90;;;;;;4953017;28;20058;-76
2024/03/24 03:38:37;;;;;;;15.52;8.80;;;4.10;99.90;;;;;;4951815;28;20082;-76
2024/03/24 03:41:05;;;;;;;12.07;7.72;;;4.10;99.90;;;;;;4979925;28;20031;-76
2024/03/24 03:43:34;;;;;;;20.75;8.13;;;4.20;99.90;;;;;;4966918;28;20023;-76
2024/03/24 03:46:01;;;;;;;15.45;8.10;;;4.20;99.90;;;;;;4952326;28;20027;-76
2024/03/24 03:48:27;;;;;;;15.82;9.02;;;4.20;99.90;;;;;;4951307;28;20038;-74
2024/03/24 03:50:53;;;;;;;14.20;8.25;;;4.20;99.90;;;;;;4951541;28;20027;-76
2024/03/24 03:53:22;;;;;;;15.70;8.30;;;4.20;99.90;;;;;;4968035;28;20482;-76
2024/03/24 03:55:54;;;;;;;14.23;7.70;;;4.20;99.90;;;;;;4970546;28;20105;-76
2024/03/24 03:58:20;;;;;;;13.07;7.22;;;4.20;99.90;;;;;;4970433;28;20022;-76
2024/03/24 04:00:49;;;;;;;13.35;7.53;;;4.30;99.90;;;;;;4970979;28;20019;-76
2024/03/24 04:03:16;;;;;;;17.55;7.40;;;4.30;99.90;;;;;;4971388;28;20027;-76
2024/03/24 04:05:43;;;;;;;13.25;7.25;;;4.30;99.90;;;;;;4971965;28;20075;-76
2024/03/24 04:08:09;;;;;;;13.25;7.75;;;4.30;99.90;;;;;;4986975;28;20034;-76
2024/03/24 04:10:35;;;;;;;10.25;7.03;;;4.30;99.90;;;;;;4967222;28;20151;-76
2024/03/24 04:13:04;;;;;;;14.60;7.28;;;4.30;99.90;;;;;;4952417;28;20038;-76
2024/03/24 04:15:30;;;;;;;11.57;6.60;;;4.30;99.90;;;;;;4950970;28;20054;-75
2024/03/24 04:17:56;;;;;;;14.32;6.35;;;4.30;99.90;;;;;;4951021;28;20067;-76
2024/03/24 04:20:22;;;;;;;13.45;6.32;;;4.30;99.90;;;;;;4976454;28;20037;-76
2024/03/24 04:22:48;;;;;;;13.27;6.63;;;4.30;99.90;;;;;;4969966;28;20023;-76
2024/03/24 04:25:14;;;;;;;13.65;5.70;;;4.30;99.90;;;;;;4986504;28;20015;-76
2024/03/24 04:27:40;;;;;;;14.30;6.60;;;4.30;99.90;;;;;;4966767;28;20023;-76
2024/03/24 04:30:07;;;;;;;8.52;5.63;;;4.30;99.90;;;;;;4952224;28;20042;-74
2024/03/24 04:32:33;;;;;;;11.00;5.32;;;4.30;99.90;;;;;;4954795;28;20025;-74
2024/03/24 04:35:00;;;;;;;12.68;6.47;;;4.40;99.90;;;;;;4971769;28;20033;-74
2024/03/24 04:37:25;;;;;;;11.73;5.78;;;4.40;99.90;;;;;;4950786;28;20084;-74
2024/03/24 04:39:52;;;;;;;12.52;6.07;;;4.40;99.90;;;;;;4950748;28;20110;-74
2024/03/24 04:42:18;;;;;;;12.85;6.55;;;4.40;99.90;;;;;;4950405;28;20190;-73
2024/03/24 04:44:44;;;;;;;10.38;5.63;;;4.40;99.90;;;;;;4950865;28;20542;-73
2024/03/24 04:47:09;;;;;;;12.05;6.60;;;4.40;99.90;;;;;;4967871;28;20029;-74
2024/03/24 04:49:35;;;;;;;8.65;5.60;;;4.40;99.90;;;;;;4958754;28;20020;-74
2024/03/24 04:52:01;;;;;;;8.73;5.57;;;4.50;99.90;;;;;;4977705;28;20401;-74
2024/03/24 04:54:27;;;;;;;12.95;6.32;;;4.50;99.90;;;;;;4966813;28;20277;-74
2024/03/24 04:56:55;;;;;;;11.73;5.15;;;4.40;99.90;;;;;;4950819;28;20031;-74
2024/03/24 04:59:24;;;;;;;12.30;5.95;;;4.40;99.90;;;;;;4959724;28;20039;-74
2024/03/24 05:01:50;;;;;;;7.80;4.68;;;4.40;99.90;;;;;;4951576;28;20550;-74
2024/03/24 05:04:17;;;;;;;14.15;5.53;;;4.40;99.90;;;;;;4966904;28;20114;-76
2024/03/24 05:06:43;;;;;;;9.32;4.93;;;4.50;99.90;;;;;;4969902;28;20023;-74
2024/03/24 05:09:12;;;;;;;9.05;5.53;;;4.50;99.90;;;;;;4971655;28;20081;-74
2024/03/24 05:11:38;;;;;;;15.43;6.45;;;4.50;99.90;;;;;;4969637;28;20027;-74
2024/03/24 05:14:07;;;;;;;8.52;5.38;;;4.50;99.90;;;;;;4971269;28;20037;-74
2024/03/24 05:16:33;;;;;;;9.32;5.63;;;4.50;99.90;;;;;;4969770;28;20062;-73
2024/03/24 05:19:02;;;;;;;15.55;5.15;;;4.50;99.90;;;;;;4969933;28;20031;-74
2024/03/24 05:21:34;;;;;;;8.48;5.65;;;4.50;99.90;;;;;;4963009;28;20019;-73
2024/03/24 05:24:02;;;;;;;8.23;5.13;;;4.50;99.90;;;;;;4971323;28;20026;-73
2024/03/24 05:26:28;;;;;;;8.85;5.55;;;4.50;99.90;;;;;;4969326;28;20031;-73
2024/03/24 05:28:57;;;;;;;7.32;5.57;;;4.50;99.90;;;;;;4957182;28;20399;-74
2024/03/24 05:31:22;;;;;;;11.88;6.80;;;4.50;99.90;;;;;;4961799;28;20019;-74
2024/03/24 05:33:51;;;;;;;11.88;5.90;;;4.50;99.90;;;;;;4951416;28;20058;-73
2024/03/24 05:36:17;;;;;;;10.82;5.65;;;4.60;99.90;;;;;;4951729;28;20410;-74
2024/03/24 05:38:42;;;;;;;10.38;5.55;;;4.60;99.90;;;;;;4967252;28;20027;-76
2024/03/24 05:41:10;;;;;;;9.70;6.05;;;4.60;99.90;;;;;;4970120;28;20187;-76
2024/03/24 05:43:36;;;;;;;9.98;5.50;;;4.60;99.90;;;;;;4972091;28;20031;-76
2024/03/24 05:46:04;;;;;;;12.68;5.50;;;4.60;99.90;;;;;;4960322;28;20026;-74
2024/03/24 05:48:34;;;;;;;9.15;5.78;;;4.70;99.90;;;;;;4969830;28;20030;-74
2024/03/24 05:51:02;;;;;;;8.05;5.55;;;4.70;99.90;;;;;;4955522;28;20020;-73
2024/03/24 05:53:34;;;;;;;10.82;6.20;;;4.70;99.90;;;;;;4953550;28;20031;-73
2024/03/24 05:56:00;;;;;;;9.52;5.65;;;4.70;99.90;;;;;;4968934;28;20027;-73
2024/03/24 05:58:26;;;;;;;10.38;5.70;;;4.80;99.90;;;;;;4988978;28;20035;-74
2024/03/24 06:00:52;;;;;;;10.50;6.00;;;4.70;99.90;;;;;;4974181;28;20058;-74
2024/03/24 06:03:18;;;;;;;11.48;5.78;;;4.80;99.90;;;;;;4973780;28;20019;-74
2024/03/24 06:05:46;;;;;;;10.30;6.07;;;4.80;99.90;;;;;;4972583;28;20029;-75
2024/03/24 06:08:15;;;;;;;15.55;6.40;;;4.80;99.90;;;;;;4988474;28;20030;-75
2024/03/24 06:10:42;;;;;;;11.10;6.55;;;4.80;99.90;;;;;;4973599;28;20037;-75
2024/03/24 06:13:08;;;;;;;11.52;6.18;;;4.80;99.90;;;;;;4972902;28;20029;-75
2024/03/24 06:15:35;;;;;;;11.15;7.10;;;4.70;99.90;;;;;;4973613;28;20034;-75
2024/03/24 06:18:07;;;;;;;11.57;6.22;;;4.70;99.90;;;;;;4972200;28;20110;-75
2024/03/24 06:20:34;;;;;;;10.10;6.28;;;4.70;99.90;;;;;;4962358;28;20039;-75
2024/03/24 06:23:01;;;;;;;13.63;8.75;;;4.70;99.90;;;;;;4960697;28;20046;-75
2024/03/24 06:25:27;;;;;;;10.18;6.93;;;4.60;99.90;;;;;;4970049;28;20506;-75
2024/03/24 06:27:53;;;;;;;11.65;6.38;;;4.60;99.90;;;;;;4973661;28;20463;-75
2024/03/24 06:30:19;;;;;;;11.32;7.00;;;4.50;99.90;;;;;;4972135;28;20117;-75
2024/03/24 06:32:52;;;;;;;11.70;6.90;;;4.50;99.90;;;;;;4987818;28;20437;-75
2024/03/24 06:35:18;;;;;;;9.75;6.32;;;4.60;99.90;;;;;;4988365;28;20050;-75
2024/03/24 06:37:47;;;;;;;11.63;7.20;;;4.50;99.90;;;;;;4973410;28;20061;-75
2024/03/24 06:40:13;;;;;;;11.40;7.35;;;4.50;99.90;;;;;;4972003;28;20473;-75
2024/03/24 06:42:44;;;;;;;10.77;7.65;;;4.50;99.90;;;;;;4973007;28;20054;-75
2024/03/24 06:45:10;;;;;;;11.73;6.65;;;4.60;99.90;;;;;;4973476;28;20106;-75
2024/03/24 06:47:36;;;;;;;15.27;7.28;;;4.60;99.90;;;;;;4973093;28;20455;-76
2024/03/24 06:50:03;;;;;;;11.93;6.88;;;4.70;99.90;;;;;;4972465;28;20027;-75
2024/03/24 06:52:31;;;;;;;10.30;6.03;;;4.70;99.90;;;;;;4971184;28;20023;-75
2024/03/24 06:54:57;;;;;;;12.95;5.63;;;4.80;99.90;;;;;;4974958;28;20023;-76
2024/03/24 06:57:26;;;;;;;7.95;6.35;;;4.80;99.90;;;;;;4952493;28;20426;-76
2024/03/24 06:59:55;;;;;;;8.93;5.72;;;4.90;99.90;;;;;;4954421;28;20024;-76
2024/03/24 07:02:20;;;;;;;10.70;6.03;;;5.00;99.90;;;;;;4968044;28;20085;-76
2024/03/24 07:04:49;;;;;;;8.85;5.43;;;5.00;99.90;;;;;;4971802;28;20466;-76
2024/03/24 07:07:14;;;;;;;9.75;4.93;;;5.10;99.90;;;;;;4987933;28;20102;-75
2024/03/24 07:09:43;;;;;;;8.98;5.72;;;5.10;99.90;;;;;;4988021;28;20113;-76
2024/03/24 07:12:12;;;;;;;7.80;5.55;;;5.20;99.90;;;;;;4971366;28;20031;-76
2024/03/24 07:14:37;;;;;;;9.50;5.38;;;5.20;99.90;;;;;;4973112;28;20035;-76
2024/03/24 07:17:06;;;;;;;7.43;5.05;;;5.30;99.90;;;;;;4967600;28;20031;-75
2024/03/24 07:19:34;;;;;;;9.60;4.85;;;5.40;99.90;;;;;;4985446;28;20066;-76
2024/03/24 07:22:00;;;;;;;8.95;5.20;;;5.40;99.90;;;;;;4972097;28;20025;-75
2024/03/24 07:24:28;;;;;;;11.00;5.57;;;5.50;99.90;;;;;;4970988;28;20117;-75
2024/03/24 07:26:54;;;;;;;6.82;4.88;;;5.50;99.90;;;;;;4971173;28;20015;-75
2024/03/24 07:29:20;;;;;;;7.65;5.07;;;5.50;99.90;;;;;;4970934;28;20052;-75
2024/03/24 07:31:49;;;;;;;8.05;6.10;;;5.40;99.90;;;;;;4970563;28;20500;-75
2024/03/24 07:34:18;;;;;;;9.38;6.57;;;5.50;99.90;;;;;;4987238;28;20042;-75
2024/03/24 07:36:47;;;;;;;9.75;5.35;;;5.50;99.90;;;;;;4972214;28;20041;-75
2024/03/24 07:39:12;;;;;;;10.02;5.78;;;5.50;99.90;;;;;;4972485;28;20046;-75
2024/03/24 07:41:41;;;;;;;9.75;5.15;;;5.40;99.90;;;;;;4972053;28;20058;-75
2024/03/24 07:44:10;;;;;;;6.63;5.53;;;5.40;99.90;;;;;;4987022;28;20019;-76
2024/03/24 07:46:35;;;;;;;10.00;5.30;;;5.40;99.90;;;;;;4970553;28;20054;-75
2024/03/24 07:49:01;;;;;;;9.32;5.40;;;5.30;99.90;;;;;;4972583;28;20043;-75
2024/03/24 07:51:28;;;;;;;6.20;5.07;;;5.40;99.90;;;;;;4970434;28;20503;-76
2024/03/24 07:53:55;;;;;;;8.18;5.20;;;5.40;99.90;;;;;;4975323;28;20094;-75
2024/03/24 07:56:26;;;;;;;7.68;5.60;;;5.40;99.90;;;;;;4966607;28;20077;-75
2024/03/24 07:58:52;;;;;;;11.43;6.57;;;5.50;99.90;;;;;;4963018;28;20026;-75
2024/03/24 08:01:21;;;;;;;7.15;5.50;;;5.50;99.90;;;;;;4970286;28;20026;-75
2024/03/24 08:03:47;;;;;;;8.80;5.35;;;5.60;99.90;;;;;;4971644;28;20349;-75
2024/03/24 08:06:12;;;;;;;9.60;5.93;;;5.80;99.90;;;;;;4970617;28;20019;-75
2024/03/24 08:08:39;;;;;;;7.95;5.70;;;5.90;99.90;;;;;;4970323;28;20085;-76
2024/03/24 08:11:05;;;;;;;8.82;5.68;;;5.90;99.90;;;;;;4986605;28;20082;-75
2024/03/24 08:13:30;;;;;;;8.65;5.82;;;5.90;99.90;;;;;;4969965;28;20023;-75
2024/03/24 08:15:56;;;;;;;9.05;5.80;;;6.00;99.90;;;;;;4970435;28;20045;-75
2024/03/24 08:18:21;;;;;;;8.95;5.78;;;6.00;99.90;;;;;;4970555;28;20047;-75
2024/03/24 08:20:48;;;;;;;7.10;5.55;;;6.10;99.90;;;;;;4970261;28;20019;-75
2024/03/24 08:23:16;;;;;;;10.20;5.53;;;6.00;99.90;;;;;;4963331;28;20098;-75
2024/03/24 08:25:47;;;;;;;7.30;5.72;;;6.00;99.90;;;;;;4982114;28;20027;-75
2024/03/24 08:28:13;;;;;;;7.25;5.88;;;6.10;99.90;;;;;;4952247;28;20022;-75
2024/03/24 08:30:39;;;;;;;9.43;5.68;;;6.20;99.90;;;;;;4958789;28;20027;-75
2024/03/24 08:33:06;;;;;;;10.73;5.78;;;6.20;99.90;;;;;;4966545;28;20395;-75
2024/03/24 08:35:32;;;;;;;7.25;5.47;;;6.20;99.90;;;;;;4952132;28;20443;-75
2024/03/24 08:38:01;;;;;;;7.65;5.28;;;6.30;99.90;;;;;;4952285;28;20085;-75
2024/03/24 08:40:27;;;;;;;10.93;5.88;;;6.40;99.90;;;;;;4966652;28;20023;-75
2024/03/24 08:42:53;;;;;;;8.43;4.97;;;6.40;99.90;;;;;;4967507;28;20026;-75
2024/03/24 08:45:21;;;;;;;6.40;5.00;;;6.40;99.90;;;;;;4981850;28;20110;-75
2024/03/24 08:47:48;;;;;;;8.27;5.25;;;6.30;99.90;;;;;;4969877;28;20029;-75
2024/03/24 08:50:14;;;;;;;7.63;5.15;;;6.30;99.90;;;;;;4963902;28;20024;-75
2024/03/24 08:52:43;;;;;;;9.18;5.85;;;6.30;99.90;;;;;;4950219;28;20035;-75
2024/03/24 08:55:09;;;;;;;8.00;5.38;;;6.30;99.90;;;;;;4963719;28;20070;-75
2024/03/24 08:57:41;;;;;;;8.35;5.22;;;6.30;99.90;;;;;;4969901;28;20433;-75
2024/03/24 09:00:09;;;;;;;8.68;4.97;;;6.30;99.90;;;;;;4971182;28;20023;-75
2024/03/24 09:02:37;;;;;;;8.70;4.70;;;6.40;99.90;;;;;;4970764;28;20073;-75
2024/03/24 09:05:04;;;;;;;6.35;4.38;;;6.50;99.90;;;;;;4970900;28;20103;-75
2024/03/24 09:07:31;;;;;;;5.78;4.53;;;6.50;99.90;;;;;;4970780;28;20140;-75
2024/03/24 09:10:00;;;;;;;7.65;5.15;;;6.50;99.90;;;;;;4970895;28;20444;-75
2024/03/24 09:12:25;;;;;;;6.85;4.30;;;6.50;99.90;;;;;;4985239;28;20031;-75
2024/03/24 09:14:51;;;;;;;6.82;4.80;;;6.60;99.90;;;;;;4973076;28;20408;-75
2024/03/24 09:17:17;;;;;;;10.25;4.80;;;6.70;99.90;;;;;;4973018;28;20037;-75
2024/03/24 09:19:45;;;;;;;4.50;3.65;;;6.80;99.90;;;;;;4972938;28;20105;-75
2024/03/24 09:22:11;;;;;;;4.95;3.50;;;7.00;99.90;;;;;;4974104;28;20019;-75
2024/03/24 09:24:37;;;;;;;5.43;3.40;;;7.10;99.90;;;;;;4972914;28;20396;-75
2024/03/24 09:27:06;;;;;;;13.30;4.05;;;7.10;99.90;;;;;;4973057;28;20027;-75
2024/03/24 09:29:33;;;;;;;5.45;3.50;;;7.00;99.90;;;;;;4972877;28;20076;-75
2024/03/24 09:32:02;;;;;;;6.38;3.40;;;7.00;99.90;;;;;;4973086;28;20034;-75
2024/03/24 09:34:30;;;;;;;3.88;2.97;;;7.00;99.90;;;;;;4973481;28;20034;-74
2024/03/24 09:36:56;;;;;;;5.97;2.70;;;7.00;99.90;;;;;;4971307;28;20023;-74
2024/03/24 09:39:28;;;;;;;2.47;2.22;;;6.90;99.90;;;;;;4984546;28;20613;-75
2024/03/24 09:41:58;;;;;;;2.83;2.30;;;6.90;99.90;;;;;;4973622;28;20027;-75
2024/03/24 09:44:25;;;;;;;5.18;2.17;;;7.00;99.90;;;;;;4974008;28;20358;-75
2024/03/24 09:46:51;;;;;;;2.38;2.17;;;7.10;99.90;;;;;;4971266;28;20286;-75
2024/03/24 09:49:21;;;;;;;6.22;2.13;;;7.20;99.90;;;;;;4983427;28;20022;-75
2024/03/24 09:51:48;;;;;;;2.47;2.20;;;7.20;99.90;;;;;;4973289;28;20041;-75
2024/03/24 09:54:14;;;;;;;2.72;1.92;;;7.10;99.90;;;;;;4967268;28;20082;-75
2024/03/24 09:56:41;;;;;;;4.40;2.53;;;7.00;99.90;;;;;;4971600;28;20035;-75
2024/03/24 09:59:08;;;;;;;2.40;2.20;;;7.10;99.90;;;;;;4972979;28;20022;-76
2024/03/24 10:01:40;;;;;;;2.65;2.00;;;7.10;99.90;;;;;;4987919;28;20081;-75
2024/03/24 10:04:06;;;;;;;2.80;2.15;;;7.10;99.90;;;;;;4972447;28;20026;-75
2024/03/24 10:06:32;;;;;;;4.43;2.45;;;7.10;99.90;;;;;;4973890;28;20015;-75
2024/03/24 10:09:04;;;;;;;3.03;2.58;;;7.00;99.90;;;;;;4970513;28;20102;-75
2024/03/24 10:11:32;;;;;;;3.78;2.83;;;6.90;99.90;;;;;;4977051;28;20023;-75
2024/03/24 10:14:00;;;;;;;3.80;3.10;;;6.70;99.90;;;;;;4962232;28;20015;-75
2024/03/24 10:16:26;;;;;;;3.20;2.90;;;6.80;99.90;;;;;;4968924;28;20380;-75
2024/03/24 10:18:52;;;;;;;4.90;3.25;;;7.20;99.90;;;;;;4969486;28;20064;-75
2024/03/24 10:21:18;;;;;;;3.83;3.00;;;7.70;99.90;;;;;;4969299;28;20023;-75
2024/03/24 10:23:44;;;;;;;3.95;2.83;;;7.90;99.90;;;;;;4969332;28;20034;-75
2024/03/24 10:26:26;;;;;;;3.20;2.90;;;7.90;99.90;;;;;;4954160;28;20023;-75
2024/03/24 10:28:51;;;;;;;3.38;2.67;;;8.00;99.90;;;;;;4968881;28;20394;-75
2024/03/24 10:31:20;;;;;;;3.00;2.63;;;9.00;99.90;;;;;;4968621;28;20037;-75
2024/03/24 10:33:50;;;;;;;2.70;2.50;;;9.00;99.90;;;;;;4985993;28;20077;-75
2024/03/24 10:36:16;;;;;;;5.25;2.90;;;9.00;99.90;;;;;;4972319;28;20046;-75
2024/03/24 10:38:42;;;;;;;2.88;2.60;;;9.10;99.90;;;;;;4988518;28;20061;-75
2024/03/24 10:41:11;;;;;;;3.67;3.00;;;9.10;99.90;;;;;;4973586;28;20019;-75
2024/03/24 10:43:37;;;;;;;4.05;2.97;;;8.90;99.90;;;;;;4972927;28;20022;-75
2024/03/24 10:46:08;;;;;;;4.57;2.85;;;8.60;99.90;;;;;;4972044;28;20021;-75
2024/03/24 10:48:34;;;;;;;4.13;2.78;;;8.30;99.90;;;;;;4988266;28;20021;-75
2024/03/24 10:51:02;;;;;;;5.68;3.67;;;8.30;99.90;;;;;;4971916;28;20107;-75
2024/03/24 10:53:31;;;;;;;4.43;2.83;;;8.20;99.90;;;;;;4972647;28;20014;-75
2024/03/24 10:55:58;;;;;;;5.88;3.22;;;8.20;99.90;;;;;;4962055;28;20055;-75
2024/03/24 10:58:24;;;;;;;7.43;3.10;;;8.20;99.90;;;;;;4967152;28;20023;-75
2024/03/24 11:00:50;;;;;;;5.35;3.40;;;8.30;99.90;;;;;;4963845;28;20019;-75
2024/03/24 11:03:17;;;;;;;5.60;3.30;;;8.20;99.90;;;;;;4966980;28;20140;-75
2024/03/24 11:05:47;;;;;;;4.22;2.92;;;8.20;99.90;;;;;;4972841;28;20482;-75
2024/03/24 11:08:15;;;;;;;7.95;3.15;;;8.30;99.90;;;;;;4972910;28;20312;-75
2024/03/24 11:10:48;;;;;;;7.00;2.95;;;8.30;99.90;;;;;;4971073;28;20126;-76
2024/03/24 11:13:27;;;;;;;6.72;3.00;;;8.40;99.90;;;;;;4966042;28;20086;-76
2024/03/24 11:15:53;;;;;;;7.65;3.80;;;8.30;99.90;;;;;;4953746;28;20023;-76
2024/03/24 11:18:30;;;;;;;5.15;3.25;;;8.30;99.90;;;;;;4971019;28;20049;-76
2024/03/24 11:21:06;;;;;;;10.50;4.00;;;8.20;99.90;;;;;;4972261;28;20027;-76
2024/03/24 11:23:42;;;;;;;6.70;3.17;;;8.40;99.90;;;;;;4971861;28;20505;-76
2024/03/24 11:26:15;;;;;;;4.70;2.75;;;8.60;99.90;;;;;;4983005;28;20024;-76
2024/03/24 11:28:45;;;;;;;3.42;2.65;;;8.70;99.90;;;;;;4969423;28;20027;-76
2024/03/24 11:31:20;;;;;;;9.10;2.67;;;8.90;99.90;;;;;;4966620;28;20027;-76
2024/03/24 11:34:03;;;;;;;4.40;2.83;;;9.00;99.90;;;;;;4951135;28;20511;-76
2024/03/24 11:36:29;;;;;;;12.85;3.55;;;8.90;99.90;;;;;;4950964;28;20111;-76
2024/03/24 11:38:57;;;;;;;3.90;2.30;;;9.00;99.90;;;;;;4982548;28;20046;-75
2024/03/24 11:41:23;;;;;;;4.18;2.70;;;8.90;99.90;;;;;;4960548;28;20027;-76
2024/03/24 11:44:03;;;;;;;5.85;2.85;;;9.00;99.90;;;;;;4966993;28;20031;-76
2024/03/24 11:46:30;;;;;;;5.10;2.85;;;9.10;99.90;;;;;;4965850;28;20110;-76
2024/03/24 11:49:01;;;;;;;5.13;2.63;;;9.20;99.90;;;;;;4971713;28;20042;-76
2024/03/24 11:51:26;;;;;;;5.47;2.10;;;9.30;99.90;;;;;;4970604;28;20118;-76
2024/03/24 11:53:55;;;;;;;4.97;2.03;;;9.40;99.90;;;;;;4970230;28;20145;-75
2024/03/24 11:56:29;;;;;;;4.20;2.15;;;9.20;99.90;;;;;;4970508;28;20050;-76
2024/03/24 11:58:58;;;;;;;8.57;2.08;;;9.10;99.90;;;;;;4971793;28;20019;-76
2024/03/24 12:01:24;;;;;;;5.03;2.00;;;9.10;99.90;;;;;;4971697;28;20027;-76
2024/03/24 12:03:53;;;;;;;6.15;2.50;;;9.30;99.90;;;;;;4982737;28;20042;-76
2024/03/24 12:06:20;;;;;;;7.78;2.72;;;9.50;99.90;;;;;;4952117;28;20292;-76
2024/03/24 12:08:47;;;;;;;5.63;1.70;;;9.60;99.90;;;;;;4951812;28;20031;-76
2024/03/24 12:11:16;;;;;;;7.45;2.20;;;9.70;99.90;;;;;;4959119;28;20103;-76
2024/03/24 12:13:45;;;;;;;4.88;1.88;;;9.90;99.90;;;;;;4951641;28;20027;-76
2024/03/24 12:16:17;;;;;;;4.88;1.88;;;10.50;99.90;;;;;;4951915;28;20513;-76
2024/03/24 12:18:43;;;;;;;3.95;1.88;;;11.10;99.90;;;;;;4959774;28;20026;-76
2024/03/24 12:21:09;;;;;;;5.07;2.08;;;11.80;99.90;;;;;;4958801;28;20224;-74
2024/03/24 12:23:36;;;;;;;4.22;1.95;;;11.80;99.90;;;;;;4950219;28;20500;-76
2024/03/24 12:26:05;;;;;;;5.00;1.70;;;12.50;99.90;;;;;;4982249;28;20061;-75
2024/03/24 12:28:30;;;;;;;4.85;1.50;;;12.80;99.90;;;;;;4951934;28;20098;-75
2024/03/24 12:30:58;;;;;;;5.90;1.73;;;13.10;98.10;;;;;;4953873;28;20107;-75
2024/03/24 12:33:25;;;;;;;3.40;1.70;;;13.60;97.80;;;;;;4970463;28;20026;-75
2024/03/24 12:35:53;;;;;;;6.95;1.88;;;13.50;96.80;;;;;;4970925;28;20047;-75
2024/03/24 12:38:19;;;;;;;5.55;1.70;;;13.10;96.90;;;;;;4981182;28;20019;-75
2024/03/24 12:40:57;;;;;;;6.40;1.80;;;12.20;96.70;;;;;;4966267;28;20023;-75
2024/03/24 12:43:29;;;;;;;3.97;1.73;;;11.70;97.20;;;;;;4949805;28;20502;-75
2024/03/24 12:45:56;;;;;;;4.60;2.05;;;11.30;98.60;;;;;;4959660;28;20670;-75
2024/03/24 12:48:28;;;;;;;4.10;2.00;;;10.80;99.00;;;;;;4971105;28;20025;-75
2024/03/24 12:50:58;;;;;;;6.38;2.05;;;10.50;99.90;;;;;;4965499;28;20514;-75